createdAt,value
2018-05-06T00:00:11.318Z,74.70
2018-05-06T00:02:38.863Z,75.30
2018-05-06T00:05:06.422Z,75.50
2018-05-06T00:07:33.969Z,75.00
2018-05-06T00:10:01.512Z,75.80
2018-05-06T00:12:29.091Z,76.50
2018-05-06T00:14:56.644Z,76.40
2018-05-06T00:17:24.185Z,76.70
2018-05-06T00:19:51.792Z,77.10
2018-05-06T00:22:19.345Z,76.50
2018-05-06T00:24:47.001Z,77.30
2018-05-06T00:27:14.558Z,76.30
2018-05-06T00:29:42.087Z,75.90
2018-05-06T00:32:09.601Z,76.00
2018-05-06T00:34:37.567Z,75.90
2018-05-06T00:37:05.132Z,75.90
2018-05-06T00:39:32.721Z,75.80
2018-05-06T00:42:01.036Z,76.20
2018-05-06T00:44:28.574Z,76.10
2018-05-06T00:46:56.884Z,76.50
2018-05-06T00:49:24.437Z,76.60
2018-05-06T00:51:52.017Z,77.40
2018-05-06T00:54:31.385Z,77.50
2018-05-06T00:56:59.732Z,77.00
2018-05-06T00:59:27.377Z,77.00
2018-05-06T01:01:54.960Z,76.60
2018-05-06T01:04:22.545Z,77.20
2018-05-06T01:06:50.947Z,77.70
2018-05-06T01:09:18.515Z,77.60
2018-05-06T01:11:46.076Z,77.80
2018-05-06T01:14:13.794Z,77.90
2018-05-06T01:16:41.417Z,77.90
2018-05-06T01:19:08.942Z,77.90
2018-05-06T01:21:36.493Z,77.90
2018-05-06T01:24:04.821Z,78.60
2018-05-06T01:26:32.459Z,77.80
2018-05-06T01:29:00.070Z,78.20
2018-05-06T01:31:27.608Z,78.30
2018-05-06T01:33:55.170Z,77.90
2018-05-06T01:36:22.741Z,77.60
2018-05-06T01:38:50.305Z,78.20
2018-05-06T01:41:17.858Z,78.50
2018-05-06T01:43:45.438Z,78.80
2018-05-06T01:46:12.998Z,78.60
2018-05-06T01:48:40.519Z,78.90
2018-05-06T01:51:08.088Z,79.00
2018-05-06T01:53:35.608Z,79.00
2018-05-06T01:56:03.202Z,78.90
2018-05-06T01:58:30.742Z,78.80
2018-05-06T02:00:58.306Z,78.40
2018-05-06T02:03:25.893Z,78.90
2018-05-06T02:05:53.426Z,78.60
2018-05-06T02:08:21.016Z,78.60
2018-05-06T02:10:48.621Z,78.50
2018-05-06T02:13:16.172Z,78.40
2018-05-06T02:15:44.460Z,77.50
2018-05-06T02:18:12.021Z,77.40
2018-05-06T02:20:39.590Z,78.00
2018-05-06T02:23:07.141Z,78.70
2018-05-06T02:25:35.486Z,79.20
2018-05-06T02:28:03.093Z,79.20
2018-05-06T02:30:30.632Z,79.30
2018-05-06T02:32:58.199Z,79.20
2018-05-06T02:35:25.810Z,78.70
2018-05-06T02:37:53.351Z,79.10
2018-05-06T02:40:20.901Z,79.10
2018-05-06T02:42:48.436Z,79.60
2018-05-06T02:45:16.004Z,79.80
2018-05-06T02:47:43.551Z,79.80
2018-05-06T02:50:11.149Z,80.20
2018-05-06T02:52:39.732Z,79.90
2018-05-06T02:55:07.268Z,80.30
2018-05-06T02:57:34.832Z,80.30
2018-05-06T03:00:02.351Z,80.50
2018-05-06T03:02:29.868Z,80.60
2018-05-06T03:04:57.495Z,81.10
2018-05-06T03:07:25.807Z,80.30
2018-05-06T03:09:53.318Z,80.30
2018-05-06T03:12:21.587Z,80.50
2018-05-06T03:14:49.888Z,81.00
2018-05-06T03:17:17.438Z,80.80
2018-05-06T03:19:45.788Z,80.40
2018-05-06T03:22:13.375Z,80.30
2018-05-06T03:24:40.932Z,80.60
2018-05-06T03:27:10.179Z,80.90
2018-05-06T03:29:37.789Z,80.70
2018-05-06T03:32:06.144Z,80.60
2018-05-06T03:34:33.732Z,80.40
2018-05-06T03:37:02.208Z,80.80
2018-05-06T03:39:30.557Z,81.00
2018-05-06T03:41:58.131Z,80.90
2018-05-06T03:44:25.755Z,80.80
2018-05-06T03:46:53.316Z,81.30
2018-05-06T03:49:20.840Z,81.50
2018-05-06T03:51:49.181Z,81.40
2018-05-06T03:54:16.738Z,81.40
2018-05-06T03:57:04.964Z,81.10
2018-05-06T03:59:44.760Z,80.80
2018-05-06T04:16:00.820Z,81.50
2018-05-06T04:18:28.436Z,81.10
2018-05-06T04:20:56.020Z,81.60
2018-05-06T04:23:23.633Z,81.60
2018-05-06T04:25:51.952Z,81.10
2018-05-06T04:28:19.469Z,81.10
2018-05-06T04:30:47.793Z,81.40
2018-05-06T04:33:15.343Z,81.40
2018-05-06T04:35:42.884Z,80.90
2018-05-06T04:38:10.427Z,81.10
2018-05-06T04:40:38.727Z,80.80
2018-05-06T04:43:06.260Z,80.80
2018-05-06T04:45:34.540Z,80.70
2018-05-06T04:48:02.082Z,80.70
2018-05-06T04:50:30.384Z,81.10
2018-05-06T04:52:57.970Z,81.10
2018-05-06T04:55:25.549Z,81.20
2018-05-06T04:57:53.157Z,81.40
2018-05-06T05:00:21.469Z,81.10
2018-05-06T05:02:49.001Z,81.10
2018-05-06T05:05:16.585Z,81.00
2018-05-06T05:07:44.134Z,81.30
2018-05-06T05:10:11.676Z,80.90
2018-05-06T05:12:39.242Z,80.80
2018-05-06T05:15:06.820Z,79.50
2018-05-06T05:17:34.396Z,78.10
2018-05-06T05:20:01.934Z,78.70
2018-05-06T05:22:29.460Z,78.50
2018-05-06T05:24:57.815Z,78.40
2018-05-06T05:27:26.113Z,77.70
2018-05-06T05:29:54.490Z,76.00
2018-05-06T05:32:21.947Z,76.00
2018-05-06T05:34:49.424Z,76.50
2018-05-06T05:37:16.893Z,76.20
2018-05-06T05:39:44.342Z,77.50
2018-05-06T05:42:11.778Z,76.00
2018-05-06T05:44:41.025Z,76.20
2018-05-06T05:47:08.508Z,76.20
2018-05-06T05:49:41.817Z,76.10
2018-05-06T05:52:09.306Z,76.60
2018-05-06T05:54:37.548Z,75.20
2018-05-06T05:57:05.117Z,75.10
2018-05-06T05:59:32.629Z,73.80
2018-05-06T06:02:00.140Z,74.20
2018-05-06T06:04:27.660Z,74.60
2018-05-06T06:06:55.177Z,76.10
2018-05-06T06:09:23.448Z,74.00
2018-05-06T06:11:51.661Z,73.20
2018-05-06T06:14:19.124Z,73.20
2018-05-06T06:16:48.169Z,72.20
2018-05-06T06:19:16.428Z,73.10
2018-05-06T06:21:43.903Z,73.10
2018-05-06T06:24:12.115Z,73.00
2018-05-06T06:26:41.542Z,72.90
2018-05-06T06:29:09.917Z,70.80
2018-05-06T06:31:37.351Z,71.20
2018-05-06T06:34:04.783Z,71.80
2018-05-06T06:36:32.289Z,70.80
2018-05-06T06:38:59.861Z,71.70
2018-05-06T06:41:27.320Z,70.90
2018-05-06T06:43:54.766Z,70.20
2018-05-06T06:46:22.237Z,71.00
2018-05-06T06:48:59.604Z,71.20
2018-05-06T06:51:27.059Z,70.60
2018-05-06T06:53:54.517Z,70.40
2018-05-06T06:56:21.970Z,69.40
2018-05-06T06:58:49.418Z,69.50
2018-05-06T07:01:16.898Z,70.80
2018-05-06T07:03:44.340Z,69.70
2018-05-06T07:06:11.791Z,69.20
2018-05-06T07:08:39.248Z,68.70
2018-05-06T07:11:06.776Z,67.80
2018-05-06T07:13:35.015Z,67.90
2018-05-06T07:16:02.476Z,68.00
2018-05-06T07:18:29.932Z,67.40
2018-05-06T07:20:57.376Z,67.40
2018-05-06T07:23:24.976Z,66.80
2018-05-06T07:25:53.261Z,65.80
2018-05-06T07:28:21.586Z,65.80
2018-05-06T07:30:49.040Z,65.80
2018-05-06T07:33:16.503Z,65.20
2018-05-06T07:35:44.016Z,66.40
2018-05-06T07:38:11.480Z,64.60
2018-05-06T07:40:50.218Z,64.10
2018-05-06T07:43:17.743Z,63.70
2018-05-06T07:45:49.088Z,63.80
2018-05-06T07:48:17.368Z,63.10
2018-05-06T07:50:45.600Z,61.30
2018-05-06T07:53:13.131Z,60.50
2018-05-06T07:55:40.660Z,61.50
2018-05-06T07:58:16.048Z,59.00
2018-05-06T08:00:43.558Z,59.00
2018-05-06T08:03:11.115Z,58.30
2018-05-06T08:05:40.288Z,58.30
2018-05-06T08:08:17.754Z,58.20
2018-05-06T08:10:45.286Z,57.30
2018-05-06T08:13:12.836Z,56.50
2018-05-06T08:15:40.422Z,56.00
2018-05-06T08:18:08.524Z,55.20
2018-05-06T08:20:36.608Z,55.30
2018-05-06T08:23:05.080Z,54.00
2018-05-06T08:25:32.702Z,53.20
2018-05-06T08:28:00.283Z,54.50
2018-05-06T08:30:27.945Z,53.00
2018-05-06T08:32:55.758Z,52.20
2018-05-06T08:35:24.228Z,51.80
2018-05-06T08:37:57.951Z,51.80
2018-05-06T08:40:25.507Z,51.60
2018-05-06T08:42:53.797Z,52.30
2018-05-06T08:45:25.228Z,49.60
2018-05-06T08:47:52.801Z,49.60
2018-05-06T08:50:21.249Z,50.40
2018-05-06T08:52:48.752Z,50.30
2018-05-06T08:55:16.271Z,48.90
2018-05-06T08:57:43.785Z,49.00
2018-05-06T09:00:11.308Z,48.90
2018-05-06T09:02:38.847Z,48.80
2018-05-06T09:05:06.348Z,50.00
2018-05-06T09:07:34.610Z,47.70
2018-05-06T09:10:02.885Z,49.50
2018-05-06T09:12:31.180Z,47.90
2018-05-06T09:14:58.670Z,47.90
2018-05-06T09:17:26.204Z,47.90
2018-05-06T09:19:53.897Z,46.60
2018-05-06T09:22:23.684Z,46.40
2018-05-06T09:24:52.310Z,46.30
2018-05-06T09:27:20.549Z,46.90
2018-05-06T09:29:48.114Z,46.90
2018-05-06T09:32:15.685Z,46.10
2018-05-06T09:37:23.808Z,45.50
2018-05-06T09:39:51.273Z,45.70
2018-05-06T09:42:18.710Z,44.60
2018-05-06T09:44:46.167Z,44.60
2018-05-06T09:47:13.817Z,43.60
2018-05-06T09:49:41.297Z,43.30
2018-05-06T09:52:08.799Z,44.50
2018-05-06T09:54:36.279Z,44.20
2018-05-06T09:57:04.484Z,42.90
2018-05-06T09:59:31.960Z,42.80
2018-05-06T10:01:59.437Z,44.40
2018-05-06T10:04:26.896Z,42.80
2018-05-06T10:06:54.387Z,42.90
2018-05-06T10:09:21.844Z,43.10
2018-05-06T10:11:49.384Z,44.50
2018-05-06T10:14:16.871Z,41.70
2018-05-06T10:16:44.330Z,41.80
2018-05-06T10:19:11.806Z,40.90
2018-05-06T10:21:39.340Z,42.10
2018-05-06T10:24:07.553Z,41.00
2018-05-06T10:26:35.018Z,41.00
2018-05-06T10:29:02.458Z,40.60
2018-05-06T10:31:29.927Z,41.20
2018-05-06T10:33:57.385Z,42.40
2018-05-06T10:36:24.886Z,41.10
2018-05-06T10:38:53.104Z,41.10
2018-05-06T10:41:20.571Z,41.10
2018-05-06T10:43:48.034Z,41.20
2018-05-06T10:46:15.505Z,39.40
2018-05-06T10:48:42.951Z,40.90
2018-05-06T10:51:10.418Z,39.90
2018-05-06T10:53:38.316Z,40.20
2018-05-06T10:56:05.833Z,40.30
2018-05-06T10:58:33.289Z,40.50
2018-05-06T11:01:00.757Z,39.00
2018-05-06T11:03:28.194Z,38.70
2018-05-06T11:05:55.656Z,40.20
2018-05-06T11:08:23.119Z,39.40
2018-05-06T11:10:50.582Z,39.30
2018-05-06T11:13:18.061Z,41.20
2018-05-06T11:15:45.509Z,39.00
2018-05-06T11:18:12.958Z,38.40
2018-05-06T11:20:40.453Z,39.10
2018-05-06T11:23:08.685Z,39.90
2018-05-06T11:25:36.172Z,39.80
2018-05-06T11:28:03.638Z,39.00
2018-05-06T11:30:31.871Z,40.20
2018-05-06T11:32:59.349Z,40.10
2018-05-06T11:35:26.793Z,39.60
2018-05-06T11:37:54.273Z,40.40
2018-05-06T11:40:21.720Z,40.00
2018-05-06T11:42:49.216Z,39.90
2018-05-06T11:45:16.669Z,40.20
2018-05-06T11:47:44.895Z,39.90
2018-05-06T11:50:13.170Z,39.90
2018-05-06T11:52:40.666Z,39.90
2018-05-06T11:55:08.116Z,39.70
2018-05-06T11:57:35.572Z,40.90
2018-05-06T12:00:03.016Z,41.00
2018-05-06T12:02:30.492Z,40.50
2018-05-06T12:04:58.719Z,41.00
2018-05-06T12:07:26.186Z,41.10
2018-05-06T12:09:53.724Z,40.30
2018-05-06T12:12:21.118Z,40.20
2018-05-06T12:14:48.589Z,40.20
2018-05-06T12:17:16.046Z,40.20
2018-05-06T12:19:43.538Z,41.20
2018-05-06T12:22:11.031Z,41.10
2018-05-06T12:24:38.507Z,41.70
2018-05-06T12:27:05.953Z,41.70
2018-05-06T12:29:33.445Z,41.20
2018-05-06T12:32:00.894Z,41.50
2018-05-06T12:34:28.351Z,41.00
2018-05-06T12:36:55.812Z,41.70
2018-05-06T12:39:23.320Z,42.10
2018-05-06T12:41:50.770Z,42.10
2018-05-06T12:44:18.259Z,42.30
2018-05-06T12:46:45.756Z,42.50
2018-05-06T12:49:13.982Z,42.20
2018-05-06T12:51:41.442Z,42.00
2018-05-06T12:54:08.946Z,42.60
2018-05-06T12:56:37.161Z,42.70
2018-05-06T12:59:04.649Z,42.70
2018-05-06T13:01:32.099Z,43.30
2018-05-06T13:03:59.571Z,42.30
2018-05-06T13:06:27.032Z,43.10
2018-05-06T13:08:54.523Z,42.90
2018-05-06T13:11:22.039Z,43.10
2018-05-06T13:13:49.527Z,43.20
2018-05-06T13:16:17.740Z,43.60
2018-05-06T13:18:45.555Z,43.60
2018-05-06T13:21:13.036Z,44.00
2018-05-06T13:23:41.260Z,43.30
2018-05-06T13:26:09.497Z,43.30
2018-05-06T13:28:37.030Z,42.40
2018-05-06T13:31:04.506Z,42.80
2018-05-06T13:33:32.729Z,43.50
2018-05-06T13:36:00.208Z,43.50
2018-05-06T13:38:27.679Z,43.50
2018-05-06T13:40:55.126Z,43.80
2018-05-06T13:43:22.573Z,43.50
2018-05-06T13:45:50.020Z,43.40
2018-05-06T13:48:17.512Z,43.60
2018-05-06T13:50:45.815Z,42.70
2018-05-06T13:53:13.281Z,42.70
2018-05-06T13:55:40.744Z,42.50
2018-05-06T13:58:08.763Z,42.90
2018-05-06T14:00:36.850Z,42.70
2018-05-06T14:03:05.084Z,42.80
2018-05-06T14:05:32.531Z,42.70
2018-05-06T14:08:00.005Z,42.40
2018-05-06T14:10:27.511Z,42.70
2018-05-06T14:12:54.970Z,42.80
2018-05-06T14:15:23.182Z,42.50
2018-05-06T14:17:50.629Z,42.40
2018-05-06T14:20:18.083Z,42.70
2018-05-06T14:22:45.548Z,42.60
2018-05-06T14:25:12.992Z,43.20
2018-05-06T14:27:40.449Z,43.40
2018-05-06T14:30:07.894Z,43.40
2018-05-06T14:32:35.348Z,43.00
2018-05-06T14:35:03.549Z,43.00
2018-05-06T14:37:31.032Z,43.00
2018-05-06T14:39:58.552Z,42.50
2018-05-06T14:45:00.660Z,43.60
2018-05-06T14:50:27.210Z,43.10
2018-05-06T14:52:54.665Z,42.40
2018-05-06T14:55:22.117Z,43.00
2018-05-06T14:57:49.591Z,42.70
2018-05-06T15:00:17.067Z,42.40
2018-05-06T15:02:44.531Z,42.10
2018-05-06T15:05:11.981Z,42.20
2018-05-06T15:07:39.429Z,42.30
2018-05-06T15:10:07.139Z,42.20
2018-05-06T15:12:34.647Z,42.50
2018-05-06T15:15:02.088Z,42.10
2018-05-06T15:17:29.554Z,42.40
2018-05-06T15:19:57.789Z,42.50
2018-05-06T15:22:26.006Z,42.40
2018-05-06T15:24:53.514Z,42.40
2018-05-06T15:27:21.735Z,41.70
2018-05-06T15:29:49.191Z,41.70
2018-05-06T15:32:16.638Z,41.70
2018-05-06T15:34:44.070Z,42.10
2018-05-06T15:37:11.543Z,42.50
2018-05-06T15:39:38.995Z,42.40
2018-05-06T15:42:06.440Z,41.80
2018-05-06T15:44:33.897Z,41.80
2018-05-06T15:47:02.104Z,42.30
2018-05-06T15:49:29.554Z,42.30
2018-05-06T15:51:57.012Z,41.70
2018-05-06T15:54:24.472Z,41.20
2018-05-06T15:56:51.928Z,40.30
2018-05-06T15:59:19.387Z,39.50
2018-05-06T16:01:58.818Z,40.20
2018-05-06T16:04:26.298Z,39.30
2018-05-06T16:06:53.744Z,39.00
2018-05-06T16:09:21.194Z,39.20
2018-05-06T16:11:48.638Z,38.80
2018-05-06T16:14:16.337Z,38.80
2018-05-06T16:16:43.790Z,38.40
2018-05-06T16:19:11.244Z,38.20
2018-05-06T16:21:38.854Z,38.70
2018-05-06T16:24:06.953Z,39.00
2018-05-06T16:26:34.452Z,38.50
2018-05-06T16:29:01.957Z,38.40
2018-05-06T16:31:29.426Z,38.70
2018-05-06T16:33:56.972Z,38.30
2018-05-06T16:36:25.263Z,38.60
2018-05-06T16:38:52.757Z,38.50
2018-05-06T16:41:20.216Z,38.50
2018-05-06T16:43:47.681Z,38.40
2018-05-06T16:46:15.273Z,38.80
2018-05-06T16:48:43.515Z,37.60
2018-05-06T16:51:11.026Z,37.50
2018-05-06T16:53:40.628Z,37.70
2018-05-06T16:56:08.861Z,38.10
2018-05-06T16:58:36.474Z,38.00
2018-05-06T17:01:03.974Z,37.70
2018-05-06T17:03:31.450Z,37.80
2018-05-06T17:05:59.121Z,37.60
2018-05-06T17:08:26.814Z,38.00
2018-05-06T17:10:54.326Z,38.00
2018-05-06T17:13:21.851Z,37.60
2018-05-06T17:15:49.401Z,37.50
2018-05-06T17:18:16.905Z,37.90
2018-05-06T17:20:44.369Z,37.50
2018-05-06T17:23:11.928Z,37.40
2018-05-06T17:25:39.523Z,37.80
2018-05-06T17:28:07.001Z,37.60
2018-05-06T17:30:34.472Z,37.50
2018-05-06T17:33:01.956Z,37.00
2018-05-06T17:35:29.456Z,37.00
2018-05-06T17:37:56.941Z,37.00
2018-05-06T17:40:24.495Z,37.40
2018-05-06T17:42:52.018Z,37.50
2018-05-06T17:45:19.523Z,37.50
2018-05-06T17:47:47.055Z,37.90
2018-05-06T17:50:14.600Z,38.00
2018-05-06T17:52:42.150Z,37.50
2018-05-06T17:55:09.669Z,38.10
2018-05-06T17:57:37.242Z,37.70
2018-05-06T18:00:04.714Z,37.70
2018-05-06T18:02:32.192Z,37.60
2018-05-06T18:05:00.433Z,38.00
2018-05-06T18:07:27.939Z,37.90
2018-05-06T18:09:56.158Z,38.20
2018-05-06T18:12:23.649Z,38.20
2018-05-06T18:14:51.846Z,38.70
2018-05-06T18:17:19.460Z,38.30
2018-05-06T18:19:46.981Z,38.60
2018-05-06T18:22:14.488Z,38.50
2018-05-06T18:24:42.031Z,38.60
2018-05-06T18:27:09.453Z,39.10
2018-05-06T18:29:37.094Z,39.10
2018-05-06T18:32:04.604Z,39.10
2018-05-06T18:34:32.189Z,38.90
2018-05-06T18:37:00.539Z,38.80
2018-05-06T18:39:28.093Z,38.70
2018-05-06T18:42:10.583Z,39.10
2018-05-06T18:44:38.149Z,38.30
2018-05-06T18:47:05.759Z,38.30
2018-05-06T18:49:33.225Z,37.90
2018-05-06T18:52:01.528Z,38.10
2018-05-06T18:54:29.024Z,38.10
2018-05-06T18:56:56.528Z,38.40
2018-05-06T18:59:24.862Z,38.40
2018-05-06T19:01:52.372Z,38.30
2018-05-06T19:04:19.916Z,38.50
2018-05-06T19:06:48.245Z,39.20
2018-05-06T19:09:15.942Z,39.20
2018-05-06T19:11:46.799Z,40.50
2018-05-06T19:14:15.095Z,41.30
2018-05-06T19:16:42.611Z,41.30
2018-05-06T19:19:10.185Z,40.10
2018-05-06T19:21:38.530Z,41.60
2018-05-06T19:24:06.076Z,41.50
2018-05-06T19:26:48.661Z,42.30
2018-05-06T19:29:16.418Z,42.70
2018-05-06T19:31:43.948Z,43.60
2018-05-06T19:34:12.770Z,44.10
2018-05-06T19:36:43.440Z,43.60
2018-05-06T19:39:10.949Z,42.20
2018-05-06T19:41:39.534Z,42.70
2018-05-06T19:44:07.849Z,41.90
2018-05-06T19:46:45.170Z,41.90
2018-05-06T19:49:29.885Z,41.90
2018-05-06T19:51:57.384Z,41.80
2018-05-06T19:54:27.978Z,42.80
2018-05-06T19:56:55.554Z,42.40
2018-05-06T19:59:23.040Z,41.50
2018-05-06T20:01:50.675Z,41.40
2018-05-06T20:04:18.188Z,41.40
2018-05-06T20:06:46.466Z,41.50
2018-05-06T20:09:14.779Z,42.00
2018-05-06T20:11:42.261Z,42.00
2018-05-06T20:14:09.759Z,41.70
2018-05-06T20:16:38.050Z,41.80
2018-05-06T20:19:05.533Z,41.80
2018-05-06T20:21:33.087Z,41.40
2018-05-06T20:24:00.554Z,41.50
2018-05-06T20:26:28.041Z,42.70
2018-05-06T20:28:55.513Z,43.10
2018-05-06T20:31:22.970Z,43.50
2018-05-06T20:33:50.454Z,43.30
2018-05-06T20:36:17.951Z,42.50
2018-05-06T20:38:45.550Z,42.70
2018-05-06T20:41:13.108Z,42.60
2018-05-06T20:43:40.737Z,41.80
2018-05-06T20:46:10.143Z,42.10
2018-05-06T20:48:38.614Z,41.40
2018-05-06T20:51:06.140Z,41.40
2018-05-06T20:53:33.604Z,41.60
2018-05-06T20:56:01.056Z,42.20
2018-05-06T20:58:28.781Z,42.40
2018-05-06T21:00:56.279Z,41.60
2018-05-06T21:03:23.755Z,41.70
2018-05-06T21:05:51.216Z,41.60
2018-05-06T21:08:18.656Z,41.00
2018-05-06T21:10:46.135Z,41.00
2018-05-06T21:13:13.588Z,41.80
2018-05-06T21:15:41.108Z,41.40
2018-05-06T21:18:09.314Z,41.00
2018-05-06T21:20:36.778Z,40.90
2018-05-06T21:23:04.223Z,40.90
2018-05-06T21:25:31.671Z,40.90
2018-05-06T21:27:59.145Z,40.20
2018-05-06T21:30:26.585Z,40.80
2018-05-06T21:32:54.038Z,39.60
2018-05-06T21:35:21.502Z,39.50
2018-05-06T21:37:48.987Z,39.10
2018-05-06T21:40:16.434Z,38.90
2018-05-06T21:42:43.883Z,38.90
2018-05-06T21:45:11.355Z,38.10
2018-05-06T21:47:38.804Z,38.00
2018-05-06T21:50:06.278Z,38.10
2018-05-06T21:52:33.731Z,37.60
2018-05-06T21:55:01.196Z,37.60
2018-05-06T21:57:28.642Z,37.30
2018-05-06T21:59:56.169Z,37.10
2018-05-06T22:02:24.385Z,37.10
2018-05-06T22:04:51.862Z,37.10
2018-05-06T22:07:19.352Z,36.50
2018-05-06T22:09:47.629Z,36.30
2018-05-06T22:12:15.850Z,36.80
2018-05-06T22:14:43.325Z,36.80
2018-05-06T22:17:10.774Z,36.90
2018-05-06T22:19:38.239Z,36.90
2018-05-06T22:22:05.692Z,37.20
2018-05-06T22:24:33.144Z,37.10
2018-05-06T22:27:00.598Z,36.70
2018-05-06T22:29:28.085Z,37.10
2018-05-06T22:31:55.530Z,36.80
2018-05-06T22:34:23.006Z,36.60
2018-05-06T22:36:51.221Z,36.30
2018-05-06T22:39:18.682Z,36.20
2018-05-06T22:41:46.135Z,36.30
2018-05-06T22:44:13.618Z,36.30
2018-05-06T22:46:41.074Z,36.00
2018-05-06T22:49:08.520Z,35.80
2018-05-06T22:51:36.040Z,36.10
2018-05-06T22:54:03.437Z,35.70
2018-05-06T22:56:30.903Z,35.60
2018-05-06T22:58:58.359Z,35.60
2018-05-06T23:01:25.818Z,35.80
2018-05-06T23:03:53.256Z,35.20
2018-05-06T23:06:20.719Z,35.70
2018-05-06T23:08:48.170Z,35.90
2018-05-06T23:11:15.636Z,35.40
2018-05-06T23:13:43.062Z,35.40
2018-05-06T23:16:11.328Z,35.10
2018-05-06T23:18:38.739Z,35.10
2018-05-06T23:21:06.207Z,35.20
2018-05-06T23:23:33.662Z,35.00
2018-05-06T23:26:01.116Z,35.30
2018-05-06T23:28:28.576Z,35.00
2018-05-06T23:30:56.152Z,35.50
2018-05-06T23:33:24.314Z,36.50
2018-05-06T23:35:51.772Z,36.50
2018-05-06T23:38:19.211Z,38.40
2018-05-06T23:40:46.671Z,39.50
2018-05-06T23:43:14.147Z,40.00
2018-05-06T23:45:41.595Z,40.40
2018-05-06T23:48:09.055Z,40.40
2018-05-06T23:50:36.585Z,40.70
2018-05-06T23:53:04.041Z,40.60
2018-05-06T23:55:31.510Z,39.70
2018-05-06T23:57:58.960Z,40.00
